sensor_id;sensor_type;location;lat;lon;timestamp;P1;durP1;ratioP1;P2;durP2;ratioP2
27293;SDS011;14785;52.556;13.430;2022-12-16T00:01:02;25.90;;;14.20;;
27293;SDS011;14785;52.556;13.430;2022-12-16T00:03:33;26.17;;;15.43;;
27293;SDS011;14785;52.556;13.430;2022-12-16T00:05:58;27.17;;;15.50;;
27293;SDS011;14785;52.556;13.430;2022-12-16T00:08:25;32.10;;;15.25;;
27293;SDS011;14785;52.556;13.430;2022-12-16T00:10:55;36.37;;;15.57;;
27293;SDS011;14785;52.556;13.430;2022-12-16T00:13:21;30.75;;;15.38;;
27293;SDS011;14785;52.556;13.430;2022-12-16T00:15:46;33.63;;;17.17;;
27293;SDS011;14785;52.556;13.430;2022-12-16T00:18:12;40.30;;;17.83;;
27293;SDS011;14785;52.556;13.430;2022-12-16T00:20:42;31.90;;;15.80;;
27293;SDS011;14785;52.556;13.430;2022-12-16T00:23:10;20.83;;;13.35;;
27293;SDS011;14785;52.556;13.430;2022-12-16T00:25:35;40.40;;;18.00;;
27293;SDS011;14785;52.556;13.430;2022-12-16T00:28:01;44.80;;;17.60;;
27293;SDS011;14785;52.556;13.430;2022-12-16T00:30:26;31.13;;;15.90;;
27293;SDS011;14785;52.556;13.430;2022-12-16T00:32:51;28.73;;;14.60;;
27293;SDS011;14785;52.556;13.430;2022-12-16T00:35:17;32.70;;;15.60;;
27293;SDS011;14785;52.556;13.430;2022-12-16T00:37:42;38.37;;;19.50;;
27293;SDS011;14785;52.556;13.430;2022-12-16T00:40:07;34.33;;;16.33;;
27293;SDS011;14785;52.556;13.430;2022-12-16T00:42:33;29.23;;;15.73;;
27293;SDS011;14785;52.556;13.430;2022-12-16T00:44:59;37.10;;;17.23;;
27293;SDS011;14785;52.556;13.430;2022-12-16T00:47:24;35.87;;;16.90;;
27293;SDS011;14785;52.556;13.430;2022-12-16T00:49:49;30.90;;;15.77;;
27293;SDS011;14785;52.556;13.430;2022-12-16T00:52:15;33.27;;;16.37;;
27293;SDS011;14785;52.556;13.430;2022-12-16T00:54:40;26.43;;;14.53;;
27293;SDS011;14785;52.556;13.430;2022-12-16T00:57:05;39.10;;;20.43;;
27293;SDS011;14785;52.556;13.430;2022-12-16T00:59:31;33.57;;;18.70;;
27293;SDS011;14785;52.556;13.430;2022-12-16T01:01:56;38.97;;;17.63;;
27293;SDS011;14785;52.556;13.430;2022-12-16T01:04:21;33.13;;;17.17;;
27293;SDS011;14785;52.556;13.430;2022-12-16T01:06:47;31.13;;;17.07;;
27293;SDS011;14785;52.556;13.430;2022-12-16T01:09:12;24.37;;;13.73;;
27293;SDS011;14785;52.556;13.430;2022-12-16T01:11:38;30.53;;;15.20;;
27293;SDS011;14785;52.556;13.430;2022-12-16T01:14:03;27.77;;;15.13;;
27293;SDS011;14785;52.556;13.430;2022-12-16T01:16:28;32.95;;;14.68;;
27293;SDS011;14785;52.556;13.430;2022-12-16T01:18:54;23.92;;;13.70;;
27293;SDS011;14785;52.556;13.430;2022-12-16T01:21:20;22.95;;;12.40;;
27293;SDS011;14785;52.556;13.430;2022-12-16T01:23:46;31.80;;;15.57;;
27293;SDS011;14785;52.556;13.430;2022-12-16T01:28:40;19.23;;;10.63;;
27293;SDS011;14785;52.556;13.430;2022-12-16T01:31:05;28.57;;;14.37;;
27293;SDS011;14785;52.556;13.430;2022-12-16T01:33:31;22.23;;;11.88;;
27293;SDS011;14785;52.556;13.430;2022-12-16T01:36:00;30.45;;;14.07;;
27293;SDS011;14785;52.556;13.430;2022-12-16T01:38:29;26.58;;;12.57;;
27293;SDS011;14785;52.556;13.430;2022-12-16T01:40:54;34.85;;;13.10;;
27293;SDS011;14785;52.556;13.430;2022-12-16T01:43:22;21.75;;;11.70;;
27293;SDS011;14785;52.556;13.430;2022-12-16T01:45:49;30.80;;;16.10;;
27293;SDS011;14785;52.556;13.430;2022-12-16T01:50:58;31.60;;;14.75;;
27293;SDS011;14785;52.556;13.430;2022-12-16T01:53:38;28.27;;;12.40;;
27293;SDS011;14785;52.556;13.430;2022-12-16T01:56:07;21.95;;;13.40;;
27293;SDS011;14785;52.556;13.430;2022-12-16T01:58:34;23.67;;;11.57;;
27293;SDS011;14785;52.556;13.430;2022-12-16T02:01:03;24.98;;;13.10;;
27293;SDS011;14785;52.556;13.430;2022-12-16T02:03:29;29.40;;;13.48;;
27293;SDS011;14785;52.556;13.430;2022-12-16T02:05:57;22.42;;;11.75;;
27293;SDS011;14785;52.556;13.430;2022-12-16T02:08:25;21.88;;;11.90;;
27293;SDS011;14785;52.556;13.430;2022-12-16T02:10:58;22.07;;;12.40;;
27293;SDS011;14785;52.556;13.430;2022-12-16T02:13:33;22.70;;;11.68;;
27293;SDS011;14785;52.556;13.430;2022-12-16T02:38:55;24.13;;;12.95;;
27293;SDS011;14785;52.556;13.430;2022-12-16T02:44:05;27.77;;;12.50;;
27293;SDS011;14785;52.556;13.430;2022-12-16T02:46:37;24.05;;;13.95;;
27293;SDS011;14785;52.556;13.430;2022-12-16T02:51:36;19.17;;;11.35;;
27293;SDS011;14785;52.556;13.430;2022-12-16T02:54:02;36.35;;;14.23;;
27293;SDS011;14785;52.556;13.430;2022-12-16T02:56:52;36.63;;;13.27;;
27293;SDS011;14785;52.556;13.430;2022-12-16T03:05:12;25.27;;;13.15;;
27293;SDS011;14785;52.556;13.430;2022-12-16T03:07:42;25.67;;;12.55;;
27293;SDS011;14785;52.556;13.430;2022-12-16T03:10:13;24.40;;;14.10;;
27293;SDS011;14785;52.556;13.430;2022-12-16T03:12:43;27.52;;;13.48;;
27293;SDS011;14785;52.556;13.430;2022-12-16T03:15:10;26.60;;;14.63;;
27293;SDS011;14785;52.556;13.430;2022-12-16T03:17:39;28.15;;;12.95;;
27293;SDS011;14785;52.556;13.430;2022-12-16T03:20:08;23.58;;;13.40;;
27293;SDS011;14785;52.556;13.430;2022-12-16T03:22:37;41.15;;;15.43;;
27293;SDS011;14785;52.556;13.430;2022-12-16T03:25:08;25.42;;;13.20;;
27293;SDS011;14785;52.556;13.430;2022-12-16T03:30:46;27.15;;;12.93;;
27293;SDS011;14785;52.556;13.430;2022-12-16T03:33:11;27.95;;;12.15;;
27293;SDS011;14785;52.556;13.430;2022-12-16T03:35:44;28.45;;;14.27;;
27293;SDS011;14785;52.556;13.430;2022-12-16T03:38:15;22.45;;;12.48;;
27293;SDS011;14785;52.556;13.430;2022-12-16T03:40:42;26.15;;;13.00;;
27293;SDS011;14785;52.556;13.430;2022-12-16T03:43:12;23.05;;;12.60;;
27293;SDS011;14785;52.556;13.430;2022-12-16T03:45:39;26.65;;;12.35;;
27293;SDS011;14785;52.556;13.430;2022-12-16T03:48:07;22.42;;;12.73;;
27293;SDS011;14785;52.556;13.430;2022-12-16T03:50:35;24.60;;;12.15;;
27293;SDS011;14785;52.556;13.430;2022-12-16T03:53:01;30.10;;;12.10;;
27293;SDS011;14785;52.556;13.430;2022-12-16T03:55:27;24.63;;;13.23;;
27293;SDS011;14785;52.556;13.430;2022-12-16T03:57:53;30.00;;;13.55;;
27293;SDS011;14785;52.556;13.430;2022-12-16T04:00:19;27.70;;;13.90;;
27293;SDS011;14785;52.556;13.430;2022-12-16T04:02:45;23.63;;;14.07;;
27293;SDS011;14785;52.556;13.430;2022-12-16T04:05:11;35.40;;;16.17;;
27293;SDS011;14785;52.556;13.430;2022-12-16T04:07:37;28.65;;;15.10;;
27293;SDS011;14785;52.556;13.430;2022-12-16T04:10:02;38.60;;;18.90;;
27293;SDS011;14785;52.556;13.430;2022-12-16T04:12:28;23.45;;;13.32;;
27293;SDS011;14785;52.556;13.430;2022-12-16T04:15:12;36.75;;;16.83;;
27293;SDS011;14785;52.556;13.430;2022-12-16T04:17:43;24.58;;;13.32;;
27293;SDS011;14785;52.556;13.430;2022-12-16T04:20:28;24.23;;;11.68;;
27293;SDS011;14785;52.556;13.430;2022-12-16T04:25:59;31.20;;;16.27;;
27293;SDS011;14785;52.556;13.430;2022-12-16T04:28:25;23.75;;;14.07;;
27293;SDS011;14785;52.556;13.430;2022-12-16T04:30:51;25.70;;;13.57;;
27293;SDS011;14785;52.556;13.430;2022-12-16T04:33:16;19.33;;;11.60;;
27293;SDS011;14785;52.556;13.430;2022-12-16T04:36:01;25.60;;;14.20;;
27293;SDS011;14785;52.556;13.430;2022-12-16T04:38:45;31.75;;;13.65;;
27293;SDS011;14785;52.556;13.430;2022-12-16T04:41:29;32.47;;;11.63;;
27293;SDS011;14785;52.556;13.430;2022-12-16T04:44:13;23.23;;;12.13;;
27293;SDS011;14785;52.556;13.430;2022-12-16T04:46:57;24.15;;;15.20;;
27293;SDS011;14785;52.556;13.430;2022-12-16T04:49:41;31.55;;;12.73;;
27293;SDS011;14785;52.556;13.430;2022-12-16T04:52:25;19.80;;;10.45;;
27293;SDS011;14785;52.556;13.430;2022-12-16T04:55:10;22.05;;;12.68;;
27293;SDS011;14785;52.556;13.430;2022-12-16T04:57:55;20.63;;;11.25;;
27293;SDS011;14785;52.556;13.430;2022-12-16T05:00:41;21.57;;;11.80;;
27293;SDS011;14785;52.556;13.430;2022-12-16T05:03:25;20.75;;;12.00;;
27293;SDS011;14785;52.556;13.430;2022-12-16T05:06:10;20.48;;;11.38;;
27293;SDS011;14785;52.556;13.430;2022-12-16T05:08:54;25.77;;;13.15;;
27293;SDS011;14785;52.556;13.430;2022-12-16T05:11:38;18.70;;;10.75;;
27293;SDS011;14785;52.556;13.430;2022-12-16T05:14:22;19.42;;;9.55;;
27293;SDS011;14785;52.556;13.430;2022-12-16T05:17:07;19.85;;;11.30;;
27293;SDS011;14785;52.556;13.430;2022-12-16T05:19:51;29.50;;;13.02;;
27293;SDS011;14785;52.556;13.430;2022-12-16T05:22:35;29.77;;;12.85;;
27293;SDS011;14785;52.556;13.430;2022-12-16T05:25:19;29.77;;;13.68;;
27293;SDS011;14785;52.556;13.430;2022-12-16T05:28:04;24.92;;;13.57;;
27293;SDS011;14785;52.556;13.430;2022-12-16T05:30:48;23.35;;;12.20;;
27293;SDS011;14785;52.556;13.430;2022-12-16T05:33:32;27.50;;;13.73;;
27293;SDS011;14785;52.556;13.430;2022-12-16T05:36:16;22.63;;;13.25;;
27293;SDS011;14785;52.556;13.430;2022-12-16T05:39:00;24.55;;;12.27;;
27293;SDS011;14785;52.556;13.430;2022-12-16T05:41:44;17.17;;;10.57;;
27293;SDS011;14785;52.556;13.430;2022-12-16T05:44:28;23.10;;;12.23;;
27293;SDS011;14785;52.556;13.430;2022-12-16T05:47:12;30.52;;;14.57;;
27293;SDS011;14785;52.556;13.430;2022-12-16T05:49:56;22.70;;;11.95;;
27293;SDS011;14785;52.556;13.430;2022-12-16T05:52:46;23.90;;;11.10;;
27293;SDS011;14785;52.556;13.430;2022-12-16T05:55:31;30.40;;;13.68;;
27293;SDS011;14785;52.556;13.430;2022-12-16T05:58:15;22.90;;;12.98;;
27293;SDS011;14785;52.556;13.430;2022-12-16T06:00:59;14.73;;;10.18;;
27293;SDS011;14785;52.556;13.430;2022-12-16T06:03:43;26.42;;;12.15;;
27293;SDS011;14785;52.556;13.430;2022-12-16T06:06:28;29.00;;;12.50;;
27293;SDS011;14785;52.556;13.430;2022-12-16T06:09:11;21.50;;;12.77;;
27293;SDS011;14785;52.556;13.430;2022-12-16T06:11:55;31.27;;;14.85;;
27293;SDS011;14785;52.556;13.430;2022-12-16T06:14:39;30.48;;;15.73;;
27293;SDS011;14785;52.556;13.430;2022-12-16T06:17:25;29.02;;;14.68;;
27293;SDS011;14785;52.556;13.430;2022-12-16T06:20:09;26.73;;;14.40;;
27293;SDS011;14785;52.556;13.430;2022-12-16T06:22:53;35.72;;;16.45;;
27293;SDS011;14785;52.556;13.430;2022-12-16T06:25:39;24.50;;;14.05;;
27293;SDS011;14785;52.556;13.430;2022-12-16T06:28:23;25.02;;;13.65;;
27293;SDS011;14785;52.556;13.430;2022-12-16T06:31:08;18.38;;;12.05;;
27293;SDS011;14785;52.556;13.430;2022-12-16T06:33:52;29.35;;;14.90;;
27293;SDS011;14785;52.556;13.430;2022-12-16T06:36:37;20.92;;;12.35;;
27293;SDS011;14785;52.556;13.430;2022-12-16T06:39:21;36.88;;;18.02;;
27293;SDS011;14785;52.556;13.430;2022-12-16T06:42:06;31.95;;;13.80;;
27293;SDS011;14785;52.556;13.430;2022-12-16T06:44:50;35.83;;;15.77;;
27293;SDS011;14785;52.556;13.430;2022-12-16T06:47:34;23.70;;;13.23;;
27293;SDS011;14785;52.556;13.430;2022-12-16T06:50:18;26.67;;;13.57;;
27293;SDS011;14785;52.556;13.430;2022-12-16T06:53:02;21.98;;;12.57;;
27293;SDS011;14785;52.556;13.430;2022-12-16T06:55:47;26.98;;;14.98;;
27293;SDS011;14785;52.556;13.430;2022-12-16T06:58:30;32.38;;;14.68;;
27293;SDS011;14785;52.556;13.430;2022-12-16T07:01:15;36.13;;;15.65;;
27293;SDS011;14785;52.556;13.430;2022-12-16T07:03:59;22.77;;;15.10;;
27293;SDS011;14785;52.556;13.430;2022-12-16T07:06:43;33.60;;;14.93;;
27293;SDS011;14785;52.556;13.430;2022-12-16T07:09:28;29.17;;;15.10;;
27293;SDS011;14785;52.556;13.430;2022-12-16T07:12:12;31.98;;;18.00;;
27293;SDS011;14785;52.556;13.430;2022-12-16T07:14:56;27.50;;;15.88;;
27293;SDS011;14785;52.556;13.430;2022-12-16T07:17:40;26.48;;;15.00;;
27293;SDS011;14785;52.556;13.430;2022-12-16T07:20:25;45.70;;;16.80;;
27293;SDS011;14785;52.556;13.430;2022-12-16T07:23:08;60.15;;;16.05;;
27293;SDS011;14785;52.556;13.430;2022-12-16T07:25:53;34.42;;;15.25;;
27293;SDS011;14785;52.556;13.430;2022-12-16T07:28:37;28.77;;;15.20;;
27293;SDS011;14785;52.556;13.430;2022-12-16T07:31:20;34.13;;;16.25;;
27293;SDS011;14785;52.556;13.430;2022-12-16T07:34:04;28.92;;;16.38;;
27293;SDS011;14785;52.556;13.430;2022-12-16T07:36:48;33.97;;;15.27;;
27293;SDS011;14785;52.556;13.430;2022-12-16T07:39:32;35.45;;;16.83;;
27293;SDS011;14785;52.556;13.430;2022-12-16T07:42:16;34.65;;;16.30;;
27293;SDS011;14785;52.556;13.430;2022-12-16T07:45:00;39.42;;;18.42;;
27293;SDS011;14785;52.556;13.430;2022-12-16T07:47:47;32.55;;;15.10;;
27293;SDS011;14785;52.556;13.430;2022-12-16T07:50:32;33.65;;;16.40;;
27293;SDS011;14785;52.556;13.430;2022-12-16T07:53:16;28.10;;;14.10;;
27293;SDS011;14785;52.556;13.430;2022-12-16T07:56:01;30.90;;;16.95;;
27293;SDS011;14785;52.556;13.430;2022-12-16T07:58:45;38.13;;;18.10;;
27293;SDS011;14785;52.556;13.430;2022-12-16T08:01:29;23.52;;;13.50;;
27293;SDS011;14785;52.556;13.430;2022-12-16T08:04:13;32.22;;;12.05;;
27293;SDS011;14785;52.556;13.430;2022-12-16T08:06:57;22.23;;;12.52;;
27293;SDS011;14785;52.556;13.430;2022-12-16T08:09:41;33.85;;;15.35;;
27293;SDS011;14785;52.556;13.430;2022-12-16T08:12:25;35.50;;;16.33;;
27293;SDS011;14785;52.556;13.430;2022-12-16T08:15:09;30.55;;;14.50;;
27293;SDS011;14785;52.556;13.430;2022-12-16T08:17:53;41.13;;;17.83;;
27293;SDS011;14785;52.556;13.430;2022-12-16T08:20:37;28.38;;;15.65;;
27293;SDS011;14785;52.556;13.430;2022-12-16T08:23:21;36.88;;;16.10;;
27293;SDS011;14785;52.556;13.430;2022-12-16T08:26:06;30.80;;;18.13;;
27293;SDS011;14785;52.556;13.430;2022-12-16T08:28:50;36.38;;;18.52;;
27293;SDS011;14785;52.556;13.430;2022-12-16T08:31:34;30.17;;;17.48;;
27293;SDS011;14785;52.556;13.430;2022-12-16T08:34:18;42.10;;;17.35;;
27293;SDS011;14785;52.556;13.430;2022-12-16T08:37:02;27.95;;;14.70;;
27293;SDS011;14785;52.556;13.430;2022-12-16T08:39:47;28.45;;;16.50;;
27293;SDS011;14785;52.556;13.430;2022-12-16T08:42:31;43.30;;;18.15;;
27293;SDS011;14785;52.556;13.430;2022-12-16T08:45:15;44.67;;;17.65;;
27293;SDS011;14785;52.556;13.430;2022-12-16T08:47:59;45.38;;;21.08;;
27293;SDS011;14785;52.556;13.430;2022-12-16T08:50:43;30.30;;;17.38;;
27293;SDS011;14785;52.556;13.430;2022-12-16T08:53:28;41.05;;;19.25;;
27293;SDS011;14785;52.556;13.430;2022-12-16T08:56:12;34.00;;;18.27;;
27293;SDS011;14785;52.556;13.430;2022-12-16T08:58:56;28.27;;;15.52;;
27293;SDS011;14785;52.556;13.430;2022-12-16T09:01:40;37.30;;;19.35;;
27293;SDS011;14785;52.556;13.430;2022-12-16T09:04:24;37.03;;;18.70;;
27293;SDS011;14785;52.556;13.430;2022-12-16T09:07:08;41.10;;;19.77;;
27293;SDS011;14785;52.556;13.430;2022-12-16T09:09:52;38.13;;;16.77;;
27293;SDS011;14785;52.556;13.430;2022-12-16T09:12:36;31.73;;;17.15;;
27293;SDS011;14785;52.556;13.430;2022-12-16T09:15:20;30.70;;;17.33;;
27293;SDS011;14785;52.556;13.430;2022-12-16T09:18:04;33.78;;;13.85;;
27293;SDS011;14785;52.556;13.430;2022-12-16T09:20:49;38.83;;;17.10;;
27293;SDS011;14785;52.556;13.430;2022-12-16T09:23:33;37.88;;;16.10;;
27293;SDS011;14785;52.556;13.430;2022-12-16T09:26:17;50.55;;;17.42;;
27293;SDS011;14785;52.556;13.430;2022-12-16T09:29:01;38.08;;;19.92;;
27293;SDS011;14785;52.556;13.430;2022-12-16T09:31:45;39.97;;;18.52;;
27293;SDS011;14785;52.556;13.430;2022-12-16T09:34:31;32.85;;;16.83;;
27293;SDS011;14785;52.556;13.430;2022-12-16T09:37:15;44.30;;;18.45;;
27293;SDS011;14785;52.556;13.430;2022-12-16T09:39:59;41.08;;;17.63;;
27293;SDS011;14785;52.556;13.430;2022-12-16T09:45:37;38.13;;;18.52;;
27293;SDS011;14785;52.556;13.430;2022-12-16T09:48:32;31.23;;;14.50;;
27293;SDS011;14785;52.556;13.430;2022-12-16T09:51:28;33.88;;;17.27;;
27293;SDS011;14785;52.556;13.430;2022-12-16T09:54:13;31.80;;;18.17;;
27293;SDS011;14785;52.556;13.430;2022-12-16T09:57:01;32.20;;;17.17;;
27293;SDS011;14785;52.556;13.430;2022-12-16T09:59:50;26.98;;;13.85;;
27293;SDS011;14785;52.556;13.430;2022-12-16T10:02:36;30.90;;;15.98;;
27293;SDS011;14785;52.556;13.430;2022-12-16T10:05:23;35.47;;;18.67;;
27293;SDS011;14785;52.556;13.430;2022-12-16T10:08:21;39.75;;;15.82;;
27293;SDS011;14785;52.556;13.430;2022-12-16T10:11:17;40.33;;;19.42;;
27293;SDS011;14785;52.556;13.430;2022-12-16T10:14:13;27.85;;;16.25;;
27293;SDS011;14785;52.556;13.430;2022-12-16T10:17:09;35.70;;;16.92;;
27293;SDS011;14785;52.556;13.430;2022-12-16T10:20:00;26.80;;;13.52;;
27293;SDS011;14785;52.556;13.430;2022-12-16T10:25:38;30.13;;;16.75;;
27293;SDS011;14785;52.556;13.430;2022-12-16T10:31:27;44.58;;;19.77;;
27293;SDS011;14785;52.556;13.430;2022-12-16T10:34:13;29.73;;;14.65;;
27293;SDS011;14785;52.556;13.430;2022-12-16T10:37:00;35.67;;;14.68;;
27293;SDS011;14785;52.556;13.430;2022-12-16T10:39:46;38.40;;;15.70;;
27293;SDS011;14785;52.556;13.430;2022-12-16T10:42:39;36.70;;;17.67;;
27293;SDS011;14785;52.556;13.430;2022-12-16T10:45:30;32.53;;;15.95;;
27293;SDS011;14785;52.556;13.430;2022-12-16T10:48:36;47.42;;;18.55;;
27293;SDS011;14785;52.556;13.430;2022-12-16T10:51:21;33.15;;;15.85;;
27293;SDS011;14785;52.556;13.430;2022-12-16T10:57:12;34.15;;;18.05;;
27293;SDS011;14785;52.556;13.430;2022-12-16T11:00:07;40.67;;;20.80;;
27293;SDS011;14785;52.556;13.430;2022-12-16T11:02:52;34.53;;;19.00;;
27293;SDS011;14785;52.556;13.430;2022-12-16T11:05:36;29.73;;;16.08;;
27293;SDS011;14785;52.556;13.430;2022-12-16T11:11:26;33.05;;;15.85;;
27293;SDS011;14785;52.556;13.430;2022-12-16T11:17:19;26.02;;;14.55;;
27293;SDS011;14785;52.556;13.430;2022-12-16T11:20:26;28.83;;;16.67;;
27293;SDS011;14785;52.556;13.430;2022-12-16T11:23:19;34.88;;;14.05;;
27293;SDS011;14785;52.556;13.430;2022-12-16T11:26:11;28.27;;;15.53;;
27293;SDS011;14785;52.556;13.430;2022-12-16T11:32:05;24.35;;;14.88;;
27293;SDS011;14785;52.556;13.430;2022-12-16T11:35:17;30.02;;;14.43;;
27293;SDS011;14785;52.556;13.430;2022-12-16T11:38:07;24.02;;;16.15;;
27293;SDS011;14785;52.556;13.430;2022-12-16T11:41:01;47.03;;;20.63;;
27293;SDS011;14785;52.556;13.430;2022-12-16T11:43:46;31.60;;;14.68;;
27293;SDS011;14785;52.556;13.430;2022-12-16T11:46:34;39.53;;;20.42;;
27293;SDS011;14785;52.556;13.430;2022-12-16T11:49:23;31.13;;;16.92;;
27293;SDS011;14785;52.556;13.430;2022-12-16T11:52:28;31.15;;;15.07;;
27293;SDS011;14785;52.556;13.430;2022-12-16T11:55:32;32.40;;;15.35;;
27293;SDS011;14785;52.556;13.430;2022-12-16T12:04:27;40.25;;;19.83;;
27293;SDS011;14785;52.556;13.430;2022-12-16T12:07:16;32.55;;;16.83;;
27293;SDS011;14785;52.556;13.430;2022-12-16T12:13:00;51.10;;;19.38;;
27293;SDS011;14785;52.556;13.430;2022-12-16T12:15:56;46.17;;;17.95;;
27293;SDS011;14785;52.556;13.430;2022-12-16T12:19:19;25.20;;;15.20;;
27293;SDS011;14785;52.556;13.430;2022-12-16T12:22:17;38.08;;;17.08;;
27293;SDS011;14785;52.556;13.430;2022-12-16T12:27:56;43.17;;;19.90;;
27293;SDS011;14785;52.556;13.430;2022-12-16T12:30:53;35.03;;;17.40;;
27293;SDS011;14785;52.556;13.430;2022-12-16T12:40:06;41.75;;;19.65;;
27293;SDS011;14785;52.556;13.430;2022-12-16T12:42:53;35.05;;;18.45;;
27293;SDS011;14785;52.556;13.430;2022-12-16T12:58:01;38.00;;;17.35;;
27293;SDS011;14785;52.556;13.430;2022-12-16T13:00:47;43.08;;;18.00;;
27293;SDS011;14785;52.556;13.430;2022-12-16T13:03:41;42.17;;;18.85;;
27293;SDS011;14785;52.556;13.430;2022-12-16T13:06:33;39.08;;;19.10;;
27293;SDS011;14785;52.556;13.430;2022-12-16T13:20:54;46.30;;;19.23;;
27293;SDS011;14785;52.556;13.430;2022-12-16T13:23:41;47.08;;;20.23;;
27293;SDS011;14785;52.556;13.430;2022-12-16T13:26:27;37.95;;;18.02;;
27293;SDS011;14785;52.556;13.430;2022-12-16T13:29:24;42.03;;;17.73;;
27293;SDS011;14785;52.556;13.430;2022-12-16T13:41:02;35.08;;;17.15;;
27293;SDS011;14785;52.556;13.430;2022-12-16T13:44:02;39.40;;;19.63;;
27293;SDS011;14785;52.556;13.430;2022-12-16T13:46:53;40.55;;;18.33;;
27293;SDS011;14785;52.556;13.430;2022-12-16T13:49:45;33.30;;;16.30;;
27293;SDS011;14785;52.556;13.430;2022-12-16T13:58:50;39.10;;;16.60;;
27293;SDS011;14785;52.556;13.430;2022-12-16T14:01:37;38.60;;;20.65;;
27293;SDS011;14785;52.556;13.430;2022-12-16T14:04:31;32.38;;;18.13;;
27293;SDS011;14785;52.556;13.430;2022-12-16T14:10:04;37.78;;;19.98;;
27293;SDS011;14785;52.556;13.430;2022-12-16T14:12:52;34.30;;;16.35;;
27293;SDS011;14785;52.556;13.430;2022-12-16T14:19:06;36.28;;;20.35;;
27293;SDS011;14785;52.556;13.430;2022-12-16T14:25:06;50.22;;;22.75;;
27293;SDS011;14785;52.556;13.430;2022-12-16T14:27:58;54.97;;;23.75;;
27293;SDS011;14785;52.556;13.430;2022-12-16T14:30:42;47.22;;;19.70;;
27293;SDS011;14785;52.556;13.430;2022-12-16T14:33:27;44.50;;;21.13;;
27293;SDS011;14785;52.556;13.430;2022-12-16T14:39:13;51.55;;;20.52;;
27293;SDS011;14785;52.556;13.430;2022-12-16T14:42:14;48.80;;;19.30;;
27293;SDS011;14785;52.556;13.430;2022-12-16T14:45:04;44.83;;;19.10;;
27293;SDS011;14785;52.556;13.430;2022-12-16T14:54:25;38.08;;;18.50;;
27293;SDS011;14785;52.556;13.430;2022-12-16T14:57:17;42.13;;;19.08;;
27293;SDS011;14785;52.556;13.430;2022-12-16T15:00:09;37.88;;;21.40;;
27293;SDS011;14785;52.556;13.430;2022-12-16T15:02:58;42.28;;;18.77;;
27293;SDS011;14785;52.556;13.430;2022-12-16T15:05:47;37.58;;;19.55;;
27293;SDS011;14785;52.556;13.430;2022-12-16T15:08:32;46.15;;;18.92;;
27293;SDS011;14785;52.556;13.430;2022-12-16T15:11:23;41.38;;;18.17;;
27293;SDS011;14785;52.556;13.430;2022-12-16T15:14:10;50.88;;;19.25;;
27293;SDS011;14785;52.556;13.430;2022-12-16T15:16:57;52.72;;;22.10;;
27293;SDS011;14785;52.556;13.430;2022-12-16T15:19:45;40.05;;;20.13;;
27293;SDS011;14785;52.556;13.430;2022-12-16T15:22:35;40.75;;;18.85;;
27293;SDS011;14785;52.556;13.430;2022-12-16T15:25:26;44.75;;;23.25;;
27293;SDS011;14785;52.556;13.430;2022-12-16T15:31:31;43.90;;;20.20;;
27293;SDS011;14785;52.556;13.430;2022-12-16T15:37:14;40.72;;;19.85;;
27293;SDS011;14785;52.556;13.430;2022-12-16T15:39:59;34.50;;;17.15;;
27293;SDS011;14785;52.556;13.430;2022-12-16T15:42:48;43.38;;;19.80;;
27293;SDS011;14785;52.556;13.430;2022-12-16T15:45:36;50.17;;;22.85;;
27293;SDS011;14785;52.556;13.430;2022-12-16T15:54:02;31.13;;;16.73;;
27293;SDS011;14785;52.556;13.430;2022-12-16T15:56:54;29.27;;;13.68;;
27293;SDS011;14785;52.556;13.430;2022-12-16T15:59:40;31.27;;;15.32;;
27293;SDS011;14785;52.556;13.430;2022-12-16T16:02:43;51.40;;;22.58;;
27293;SDS011;14785;52.556;13.430;2022-12-16T16:05:29;45.45;;;20.90;;
27293;SDS011;14785;52.556;13.430;2022-12-16T16:08:14;43.17;;;21.20;;
27293;SDS011;14785;52.556;13.430;2022-12-16T16:10:58;40.85;;;19.95;;
27293;SDS011;14785;52.556;13.430;2022-12-16T16:13:43;41.63;;;20.83;;
27293;SDS011;14785;52.556;13.430;2022-12-16T16:16:27;39.55;;;17.85;;
27293;SDS011;14785;52.556;13.430;2022-12-16T16:19:12;39.03;;;20.08;;
27293;SDS011;14785;52.556;13.430;2022-12-16T16:22:04;34.25;;;19.17;;
27293;SDS011;14785;52.556;13.430;2022-12-16T16:24:55;47.70;;;20.92;;
27293;SDS011;14785;52.556;13.430;2022-12-16T16:27:39;33.97;;;20.13;;
27293;SDS011;14785;52.556;13.430;2022-12-16T16:30:23;27.23;;;13.65;;
27293;SDS011;14785;52.556;13.430;2022-12-16T16:33:07;36.90;;;18.88;;
27293;SDS011;14785;52.556;13.430;2022-12-16T16:35:51;42.67;;;19.05;;
27293;SDS011;14785;52.556;13.430;2022-12-16T16:38:35;39.45;;;19.15;;
27293;SDS011;14785;52.556;13.430;2022-12-16T16:41:19;40.60;;;21.33;;
27293;SDS011;14785;52.556;13.430;2022-12-16T16:44:03;41.78;;;18.48;;
27293;SDS011;14785;52.556;13.430;2022-12-16T16:46:47;36.13;;;17.83;;
27293;SDS011;14785;52.556;13.430;2022-12-16T16:49:32;39.42;;;22.38;;
27293;SDS011;14785;52.556;13.430;2022-12-16T16:52:22;43.70;;;20.92;;
27293;SDS011;14785;52.556;13.430;2022-12-16T16:55:12;34.05;;;18.35;;
27293;SDS011;14785;52.556;13.430;2022-12-16T16:57:58;30.60;;;17.40;;
27293;SDS011;14785;52.556;13.430;2022-12-16T17:00:43;38.78;;;20.40;;
27293;SDS011;14785;52.556;13.430;2022-12-16T17:03:26;43.80;;;22.13;;
27293;SDS011;14785;52.556;13.430;2022-12-16T17:06:10;34.13;;;19.02;;
27293;SDS011;14785;52.556;13.430;2022-12-16T17:08:56;41.83;;;21.48;;
27293;SDS011;14785;52.556;13.430;2022-12-16T17:11:40;50.58;;;20.70;;
27293;SDS011;14785;52.556;13.430;2022-12-16T17:14:25;28.25;;;16.20;;
27293;SDS011;14785;52.556;13.430;2022-12-16T17:17:09;32.88;;;17.13;;
27293;SDS011;14785;52.556;13.430;2022-12-16T17:19:55;38.45;;;20.65;;
27293;SDS011;14785;52.556;13.430;2022-12-16T17:22:39;31.80;;;18.90;;
27293;SDS011;14785;52.556;13.430;2022-12-16T17:25:23;38.17;;;19.00;;
27293;SDS011;14785;52.556;13.430;2022-12-16T17:28:10;42.70;;;20.45;;
27293;SDS011;14785;52.556;13.430;2022-12-16T17:30:54;34.80;;;18.00;;
27293;SDS011;14785;52.556;13.430;2022-12-16T17:33:38;35.92;;;19.10;;
27293;SDS011;14785;52.556;13.430;2022-12-16T17:36:22;35.35;;;18.73;;
27293;SDS011;14785;52.556;13.430;2022-12-16T17:39:07;35.95;;;18.60;;
27293;SDS011;14785;52.556;13.430;2022-12-16T17:41:52;38.40;;;18.67;;
27293;SDS011;14785;52.556;13.430;2022-12-16T17:44:36;39.22;;;20.23;;
27293;SDS011;14785;52.556;13.430;2022-12-16T17:47:20;28.42;;;15.38;;
27293;SDS011;14785;52.556;13.430;2022-12-16T17:50:05;37.22;;;18.27;;
27293;SDS011;14785;52.556;13.430;2022-12-16T17:52:56;46.10;;;21.65;;
27293;SDS011;14785;52.556;13.430;2022-12-16T17:55:41;43.30;;;21.23;;
27293;SDS011;14785;52.556;13.430;2022-12-16T17:58:32;50.67;;;19.45;;
27293;SDS011;14785;52.556;13.430;2022-12-16T18:01:17;37.53;;;18.60;;
27293;SDS011;14785;52.556;13.430;2022-12-16T18:04:02;41.53;;;20.08;;
27293;SDS011;14785;52.556;13.430;2022-12-16T18:06:46;48.47;;;18.65;;